Time;durP1;ratioP1;P1;durP2;ratioP2;P2;SDS_P1;SDS_P2;PMS_P1;PMS_P2;Temp;Humidity;BMP_temperature;BMP_pressure;BME280_temperature;BME280_humidity;BME280_pressure;Samples;Min_cycle;Max_cycle;Signal;HPM_P1;HPM_P2
2022/07/08 00:00:37;;;;;;;1.10;1.00;;;21.40;99.90;;;;;;5057128;28;20459;-86
2022/07/08 00:03:05;;;;;;;2.80;0.83;;;21.40;99.90;;;;;;5033608;28;20467;-88
2022/07/08 00:05:34;;;;;;;3.43;1.00;;;21.30;99.90;;;;;;5056910;28;20857;-87
2022/07/08 00:08:03;;;;;;;3.17;1.10;;;21.20;99.90;;;;;;5054435;28;20471;-87
2022/07/08 00:10:33;;;;;;;2.10;1.03;;;21.20;99.90;;;;;;5051101;28;20478;-86
2022/07/08 00:13:01;;;;;;;1.53;0.97;;;21.10;99.90;;;;;;5055106;28;20460;-86
2022/07/08 00:15:30;;;;;;;1.73;1.23;;;21.10;99.90;;;;;;5024415;28;20460;-86
2022/07/08 00:17:59;;;;;;;1.40;1.00;;;21.20;99.90;;;;;;5053062;28;20967;-86
2022/07/08 00:20:27;;;;;;;2.90;1.00;;;21.10;99.90;;;;;;5055182;28;20830;-86
2022/07/08 00:22:56;;;;;;;4.93;1.23;;;21.10;99.90;;;;;;5065824;28;20981;-84
2022/07/08 00:25:24;;;;;;;5.47;1.00;;;21.00;99.90;;;;;;5048913;28;20470;-83
2022/07/08 00:27:54;;;;;;;1.43;1.03;;;21.00;99.90;;;;;;5044158;28;20480;-83
2022/07/08 00:30:22;;;;;;;2.23;1.30;;;21.00;99.50;;;;;;5043961;28;20466;-83
2022/07/08 00:32:50;;;;;;;2.10;1.00;;;21.00;98.30;;;;;;5046053;28;20484;-84
2022/07/08 00:35:19;;;;;;;3.63;1.20;;;21.00;98.70;;;;;;5039880;28;20467;-83
2022/07/08 00:37:47;;;;;;;3.00;1.50;;;20.90;97.40;;;;;;5063754;28;20963;-84
2022/07/08 00:40:15;;;;;;;1.93;1.50;;;20.80;96.70;;;;;;5053336;28;20449;-85
2022/07/08 00:42:48;;;;;;;3.27;1.20;;;20.80;97.00;;;;;;5048508;28;20472;-83
2022/07/08 00:45:18;;;;;;;4.67;1.53;;;20.70;94.80;;;;;;5049296;28;20459;-84
2022/07/08 00:47:46;;;;;;;3.47;1.40;;;20.80;92.80;;;;;;5060291;28;20487;-84
2022/07/08 00:50:15;;;;;;;1.80;1.20;;;20.70;93.90;;;;;;5041679;28;20450;-84
2022/07/08 00:52:43;;;;;;;3.70;1.40;;;20.70;93.00;;;;;;5051905;28;20840;-84
2022/07/08 00:55:12;;;;;;;2.70;1.83;;;20.60;92.40;;;;;;5036538;28;20448;-84
2022/07/08 00:57:41;;;;;;;1.53;1.40;;;20.50;90.90;;;;;;5033510;28;20456;-84
2022/07/08 01:00:10;;;;;;;5.10;1.87;;;20.50;89.60;;;;;;5047371;28;20462;-84
2022/07/08 01:02:40;;;;;;;4.03;1.40;;;20.50;87.10;;;;;;5047208;28;20467;-85
2022/07/08 01:05:09;;;;;;;3.73;1.47;;;20.40;88.80;;;;;;5050947;28;21299;-84
2022/07/08 01:07:37;;;;;;;2.70;1.30;;;20.40;85.70;;;;;;5051387;28;20456;-85
2022/07/08 01:10:06;;;;;;;1.50;1.40;;;20.40;87.60;;;;;;5048239;28;20441;-84
2022/07/08 01:12:35;;;;;;;3.07;1.90;;;20.30;83.10;;;;;;5049495;28;20483;-85
2022/07/08 01:15:04;;;;;;;1.63;1.40;;;20.30;83.10;;;;;;5045634;28;20452;-84
2022/07/08 01:17:43;;;;;;;4.00;1.57;;;20.30;82.20;;;;;;5053006;28;20525;-84
2022/07/08 01:20:12;;;;;;;2.90;1.10;;;20.20;83.00;;;;;;5038807;28;20461;-85
2022/07/08 01:22:43;;;;;;;2.07;1.33;;;20.20;79.40;;;;;;5050209;28;20478;-84
2022/07/08 01:25:11;;;;;;;1.63;1.30;;;20.20;79.80;;;;;;5048956;28;20456;-84
2022/07/08 01:27:40;;;;;;;4.80;1.30;;;20.20;79.90;;;;;;5048385;28;20558;-84
2022/07/08 01:30:09;;;;;;;2.27;1.50;;;20.20;80.80;;;;;;5050302;28;20456;-84
2022/07/08 01:32:39;;;;;;;2.90;1.30;;;20.20;77.80;;;;;;5048958;28;20494;-85
2022/07/08 01:35:08;;;;;;;1.90;1.37;;;20.10;77.60;;;;;;5026888;28;20473;-84
2022/07/08 01:37:37;;;;;;;1.80;1.30;;;20.10;77.70;;;;;;5048803;28;20463;-85
2022/07/08 01:40:08;;;;;;;5.07;1.63;;;20.10;79.90;;;;;;5045381;28;20467;-83
2022/07/08 01:42:36;;;;;;;2.33;1.30;;;20.00;76.00;;;;;;5032003;28;20483;-84
2022/07/08 01:45:05;;;;;;;3.20;1.50;;;20.00;79.20;;;;;;5050657;28;20704;-84
2022/07/08 01:47:33;;;;;;;2.53;1.40;;;20.00;75.80;;;;;;5050444;28;20453;-84
2022/07/08 01:50:02;;;;;;;4.67;1.57;;;19.90;80.10;;;;;;5044745;28;20495;-84
2022/07/08 01:52:30;;;;;;;3.53;1.70;;;19.90;79.20;;;;;;5050749;28;21036;-84
2022/07/08 01:54:58;;;;;;;1.87;1.40;;;19.80;80.70;;;;;;5035517;28;20491;-83
2022/07/08 01:57:28;;;;;;;4.73;1.60;;;19.80;81.00;;;;;;5047402;28;20451;-84
2022/07/08 01:59:56;;;;;;;1.30;1.20;;;19.80;80.20;;;;;;5059799;28;20952;-83
2022/07/08 02:02:25;;;;;;;2.80;1.40;;;19.80;79.40;;;;;;5048233;28;20539;-84
2022/07/08 02:04:53;;;;;;;2.43;1.20;;;19.70;78.60;;;;;;5050357;28;20450;-84
2022/07/08 02:07:21;;;;;;;6.00;1.63;;;19.70;80.40;;;;;;5049922;28;20455;-83
2022/07/08 02:09:50;;;;;;;4.00;1.93;;;19.70;77.70;;;;;;5036599;28;20488;-85
2022/07/08 02:12:20;;;;;;;5.80;1.60;;;19.70;82.70;;;;;;5043276;28;20534;-84
2022/07/08 02:14:51;;;;;;;5.53;1.40;;;19.60;78.90;;;;;;5048735;28;20451;-83
2022/07/08 02:17:21;;;;;;;5.87;1.53;;;19.60;76.40;;;;;;5045565;28;21004;-83
2022/07/08 02:19:50;;;;;;;6.23;1.53;;;19.60;75.90;;;;;;5049928;28;20444;-84
2022/07/08 02:22:18;;;;;;;2.80;1.40;;;19.60;77.10;;;;;;5050520;28;20494;-84
2022/07/08 02:24:47;;;;;;;3.07;1.50;;;19.60;81.60;;;;;;5061498;28;20467;-84
2022/07/08 02:27:17;;;;;;;3.23;1.57;;;19.60;79.80;;;;;;5045395;28;20547;-83
2022/07/08 02:29:45;;;;;;;3.67;1.33;;;19.50;79.30;;;;;;5045231;28;21013;-84
2022/07/08 02:32:16;;;;;;;2.90;2.00;;;19.50;75.40;;;;;;5038331;28;20506;-84
2022/07/08 02:34:44;;;;;;;2.77;1.43;;;19.50;79.70;;;;;;5047917;28;20452;-85
2022/07/08 02:37:13;;;;;;;2.97;1.20;;;19.50;77.70;;;;;;5045823;28;20455;-85
2022/07/08 02:39:41;;;;;;;2.10;1.40;;;19.40;77.80;;;;;;5049546;28;20467;-85
2022/07/08 02:42:10;;;;;;;3.20;1.20;;;19.30;75.80;;;;;;5064494;28;20534;-85
2022/07/08 02:44:38;;;;;;;2.30;1.10;;;19.30;75.90;;;;;;5053245;28;20456;-84
2022/07/08 02:47:08;;;;;;;2.13;1.50;;;19.30;81.00;;;;;;5041527;28;20493;-85
2022/07/08 02:49:39;;;;;;;6.40;1.33;;;19.30;75.70;;;;;;5040553;28;20555;-85
2022/07/08 02:52:08;;;;;;;3.07;1.30;;;19.30;77.80;;;;;;5036463;28;20467;-84
2022/07/08 02:54:36;;;;;;;2.40;2.00;;;19.30;76.60;;;;;;5044734;28;20943;-84
2022/07/08 02:57:05;;;;;;;2.00;1.50;;;19.10;76.30;;;;;;5043749;28;20469;-84
2022/07/08 02:59:33;;;;;;;4.20;1.40;;;19.20;75.20;;;;;;5027496;28;20447;-84
2022/07/08 03:02:02;;;;;;;2.23;1.60;;;19.20;77.00;;;;;;5038157;28;20468;-84
2022/07/08 03:04:30;;;;;;;2.67;1.93;;;19.20;76.50;;;;;;5041866;28;20464;-84
2022/07/08 03:07:00;;;;;;;2.80;2.30;;;19.20;77.90;;;;;;5043770;28;20964;-84
2022/07/08 03:09:28;;;;;;;3.07;1.30;;;19.10;75.40;;;;;;5045287;28;20475;-84
2022/07/08 03:11:56;;;;;;;2.77;1.30;;;19.10;73.80;;;;;;5044274;28;20471;-84
2022/07/08 03:14:25;;;;;;;3.10;1.80;;;19.10;74.40;;;;;;5060153;28;20517;-85
2022/07/08 03:16:53;;;;;;;4.83;1.47;;;19.00;74.60;;;;;;5039801;28;20459;-85
2022/07/08 03:19:21;;;;;;;2.23;1.23;;;19.00;74.70;;;;;;5051327;28;20801;-85
2022/07/08 03:21:49;;;;;;;1.63;1.20;;;19.10;73.80;;;;;;5045856;28;20488;-84
2022/07/08 03:24:19;;;;;;;3.90;1.30;;;19.00;74.80;;;;;;5042851;28;20560;-85
2022/07/08 03:26:47;;;;;;;3.70;2.00;;;18.90;73.10;;;;;;5045363;28;20494;-84
2022/07/08 03:29:16;;;;;;;1.53;1.10;;;18.90;74.90;;;;;;5066372;28;20521;-84
2022/07/08 03:31:44;;;;;;;5.43;1.90;;;18.90;74.30;;;;;;5052440;28;20516;-84
2022/07/08 03:34:13;;;;;;;2.50;1.20;;;18.90;73.90;;;;;;5049918;28;20459;-84
2022/07/08 03:36:41;;;;;;;2.70;1.57;;;19.00;74.80;;;;;;5042951;28;21022;-84
2022/07/08 03:39:09;;;;;;;1.40;1.30;;;18.90;73.00;;;;;;5043925;28;20460;-83
2022/07/08 03:41:38;;;;;;;4.23;1.30;;;18.90;73.70;;;;;;5045356;28;20569;-85
2022/07/08 03:44:06;;;;;;;2.23;2.03;;;18.90;76.20;;;;;;5037372;28;20543;-83
2022/07/08 03:46:35;;;;;;;2.80;1.53;;;18.90;73.80;;;;;;5033762;28;20501;-83
2022/07/08 03:49:03;;;;;;;1.97;1.10;;;18.90;77.10;;;;;;5050225;28;20467;-82
2022/07/08 03:51:32;;;;;;;3.57;1.40;;;18.90;76.40;;;;;;5051407;28;21006;-83
2022/07/08 03:54:00;;;;;;;6.00;1.30;;;18.90;74.30;;;;;;5048699;28;20442;-83
2022/07/08 03:56:28;;;;;;;2.17;1.17;;;18.90;74.40;;;;;;5046385;28;20547;-84
2022/07/08 03:58:58;;;;;;;5.87;2.07;;;18.90;90.30;;;;;;5043940;28;20449;-84
2022/07/08 04:01:26;;;;;;;3.20;1.20;;;18.90;74.40;;;;;;5049352;28;20496;-84
2022/07/08 04:03:55;;;;;;;1.70;1.40;;;18.90;78.70;;;;;;5043932;28;20531;-84
2022/07/08 04:06:23;;;;;;;2.60;1.67;;;18.90;74.70;;;;;;5052007;28;20450;-84
2022/07/08 04:08:51;;;;;;;2.03;1.07;;;18.90;76.10;;;;;;5050743;28;20495;-83
2022/07/08 04:11:20;;;;;;;2.40;1.40;;;18.80;74.50;;;;;;5050680;28;20490;-82
2022/07/08 04:13:48;;;;;;;1.63;1.30;;;18.90;75.50;;;;;;5061379;28;20526;-84
2022/07/08 04:16:18;;;;;;;1.90;1.37;;;18.80;75.00;;;;;;5049888;28;20458;-83
2022/07/08 04:18:46;;;;;;;3.07;1.70;;;18.80;75.60;;;;;;5056366;28;20452;-83
2022/07/08 04:21:14;;;;;;;2.50;1.60;;;18.80;76.90;;;;;;5054144;28;20478;-83
2022/07/08 04:23:43;;;;;;;2.47;1.60;;;18.80;75.70;;;;;;5043773;28;20451;-84
2022/07/08 04:26:11;;;;;;;2.70;1.20;;;18.80;76.00;;;;;;5049364;28;20452;-84
2022/07/08 04:28:39;;;;;;;2.13;1.67;;;18.80;77.30;;;;;;5070809;28;20439;-85
2022/07/08 04:31:08;;;;;;;2.50;1.17;;;18.70;75.90;;;;;;5035041;28;20462;-85
2022/07/08 04:33:37;;;;;;;2.80;1.47;;;18.70;76.50;;;;;;5050954;28;21001;-81
2022/07/08 04:36:07;;;;;;;1.80;1.30;;;18.70;74.90;;;;;;5047234;28;20501;-79
2022/07/08 04:38:35;;;;;;;3.37;1.23;;;18.50;68.80;;;;;;5048040;28;20494;-79
2022/07/08 04:41:03;;;;;;;5.60;1.70;;;18.30;74.70;;;;;;5044649;28;20501;-79
2022/07/08 04:43:31;;;;;;;3.60;1.20;;;18.20;73.50;;;;;;5038216;28;20455;-78
2022/07/08 04:45:59;;;;;;;6.53;1.70;;;18.20;72.70;;;;;;5045603;28;20447;-76
2022/07/08 04:48:28;;;;;;;2.30;1.83;;;18.10;75.00;;;;;;5041890;28;20557;-78
2022/07/08 04:50:59;;;;;;;2.97;1.90;;;18.00;75.90;;;;;;5043178;28;20467;-84
2022/07/08 04:53:27;;;;;;;5.50;1.80;;;18.20;78.70;;;;;;5062549;28;20954;-83
2022/07/08 04:55:56;;;;;;;1.50;1.40;;;18.30;76.80;;;;;;5051973;28;20459;-84
2022/07/08 04:58:24;;;;;;;2.70;1.67;;;18.40;80.60;;;;;;5043781;28;20463;-83
2022/07/08 05:00:52;;;;;;;6.30;1.60;;;18.50;81.60;;;;;;5044346;28;20522;-84
2022/07/08 05:03:21;;;;;;;3.87;1.80;;;18.60;80.10;;;;;;5033539;28;20458;-83
2022/07/08 05:05:52;;;;;;;2.23;1.43;;;18.60;79.10;;;;;;5054590;28;20531;-84
2022/07/08 05:08:22;;;;;;;1.90;1.30;;;18.60;76.70;;;;;;5052937;28;20463;-84
2022/07/08 05:10:50;;;;;;;3.30;1.40;;;18.70;79.50;;;;;;5053407;28;20479;-83
2022/07/08 05:13:18;;;;;;;3.90;1.70;;;18.60;79.30;;;;;;5051134;28;20488;-83
2022/07/08 05:15:46;;;;;;;2.83;1.40;;;18.70;80.80;;;;;;5044867;28;20941;-84
2022/07/08 05:18:15;;;;;;;1.60;1.30;;;18.60;78.70;;;;;;5044239;28;20463;-83
2022/07/08 05:20:43;;;;;;;4.00;1.53;;;18.70;78.60;;;;;;5049335;28;21170;-84
2022/07/08 05:23:11;;;;;;;2.23;1.77;;;19.20;79.40;;;;;;5045513;28;20569;-83
2022/07/08 05:25:41;;;;;;;1.73;1.40;;;18.70;78.20;;;;;;5043500;28;20466;-83
2022/07/08 05:28:09;;;;;;;1.63;1.20;;;18.70;80.20;;;;;;5047446;28;20454;-83
2022/07/08 05:30:37;;;;;;;3.33;1.40;;;18.70;78.70;;;;;;5045244;28;20486;-84
2022/07/08 05:33:06;;;;;;;4.53;1.50;;;18.80;79.00;;;;;;5053354;28;20498;-84
2022/07/08 05:35:34;;;;;;;2.40;1.17;;;18.80;79.80;;;;;;5042562;28;20451;-83
2022/07/08 05:38:02;;;;;;;1.77;1.13;;;18.80;79.00;;;;;;5053265;28;20862;-84
2022/07/08 05:40:31;;;;;;;3.80;1.23;;;18.80;78.60;;;;;;5049232;28;20453;-84
2022/07/08 05:43:00;;;;;;;1.77;1.50;;;18.80;79.90;;;;;;5048641;28;20488;-84
2022/07/08 05:45:29;;;;;;;2.07;1.20;;;18.80;80.80;;;;;;5043909;28;20465;-82
2022/07/08 05:47:57;;;;;;;4.07;1.30;;;18.90;78.50;;;;;;5061267;28;20458;-83
2022/07/08 05:50:25;;;;;;;1.30;1.20;;;18.90;81.50;;;;;;5049018;28;20487;-84
2022/07/08 05:52:54;;;;;;;2.90;1.43;;;18.90;79.90;;;;;;5045982;28;20482;-84
2022/07/08 05:55:22;;;;;;;4.60;1.33;;;18.90;82.70;;;;;;5048697;28;20456;-83
2022/07/08 05:57:50;;;;;;;4.00;1.37;;;19.00;84.80;;;;;;5046848;28;20474;-84
2022/07/08 06:00:21;;;;;;;7.57;1.50;;;19.00;81.60;;;;;;5050940;28;20454;-84
2022/07/08 06:02:50;;;;;;;3.30;1.70;;;19.00;79.50;;;;;;5053194;28;20471;-83
2022/07/08 06:05:18;;;;;;;3.40;1.83;;;19.00;81.50;;;;;;5042740;28;21286;-85
2022/07/08 06:07:47;;;;;;;4.20;3.80;;;19.00;80.80;;;;;;5045416;28;20976;-84
2022/07/08 06:10:15;;;;;;;3.07;1.80;;;19.10;80.20;;;;;;5044553;28;20525;-83
2022/07/08 06:12:43;;;;;;;1.80;1.50;;;19.10;81.40;;;;;;5043172;28;20465;-84
2022/07/08 06:15:14;;;;;;;2.63;1.57;;;19.10;79.70;;;;;;5043637;28;20543;-83
2022/07/08 06:17:44;;;;;;;2.97;1.60;;;19.10;82.70;;;;;;5046323;28;20502;-86
2022/07/08 06:20:14;;;;;;;2.17;1.13;;;19.20;82.10;;;;;;5034728;28;20502;-84
2022/07/08 06:22:50;;;;;;;1.60;1.00;;;19.20;84.00;;;;;;5048510;28;20466;-83
2022/07/08 06:25:19;;;;;;;2.63;1.03;;;19.20;83.90;;;;;;5047479;28;20436;-84
2022/07/08 06:27:47;;;;;;;6.43;1.97;;;19.30;82.50;;;;;;5050850;28;20478;-84
2022/07/08 06:30:15;;;;;;;2.60;1.50;;;19.30;85.70;;;;;;5058879;28;20457;-86
2022/07/08 06:32:45;;;;;;;3.93;1.80;;;19.40;84.00;;;;;;5038365;28;20712;-79
2022/07/08 06:35:13;;;;;;;3.37;1.40;;;19.40;85.90;;;;;;5036180;28;20464;-80
2022/07/08 06:37:41;;;;;;;3.63;1.10;;;19.50;82.70;;;;;;5042803;28;20466;-79
2022/07/08 06:40:11;;;;;;;3.00;1.07;;;19.50;83.10;;;;;;5041742;28;20460;-79
2022/07/08 06:42:39;;;;;;;2.27;1.20;;;19.50;79.70;;;;;;5043357;28;20480;-79
2022/07/08 06:45:09;;;;;;;1.70;1.17;;;19.50;79.80;;;;;;5045175;28;20443;-79
2022/07/08 06:47:37;;;;;;;1.33;1.00;;;19.50;77.60;;;;;;5019402;28;20456;-80
2022/07/08 06:50:08;;;;;;;2.30;1.13;;;19.50;79.60;;;;;;5041020;28;20513;-79
2022/07/08 06:52:37;;;;;;;1.93;1.00;;;19.40;76.00;;;;;;5044075;28;20518;-79
2022/07/08 06:55:06;;;;;;;4.50;1.20;;;19.50;78.10;;;;;;5039366;28;20455;-79
2022/07/08 06:57:34;;;;;;;4.10;1.00;;;19.50;79.80;;;;;;5040850;28;20456;-79
2022/07/08 07:00:04;;;;;;;1.10;0.90;;;20.00;83.50;;;;;;5042288;28;20923;-80
2022/07/08 07:02:49;;;;;;;4.10;1.30;;;19.50;78.80;;;;;;5036788;28;20463;-80
2022/07/08 07:05:20;;;;;;;2.10;1.00;;;19.70;82.90;;;;;;5035314;28;20448;-79
2022/07/08 07:07:49;;;;;;;4.30;1.03;;;19.80;79.60;;;;;;5040612;28;20462;-80
2022/07/08 07:10:17;;;;;;;2.03;1.13;;;19.90;82.30;;;;;;5038590;28;20473;-79
2022/07/08 07:12:45;;;;;;;2.53;1.20;;;19.90;85.40;;;;;;5042683;28;20541;-80
2022/07/08 07:15:13;;;;;;;2.20;1.00;;;20.00;86.50;;;;;;5039462;28;20982;-79
2022/07/08 07:17:42;;;;;;;3.07;1.17;;;20.10;85.90;;;;;;5044015;28;20470;-79
2022/07/08 07:20:12;;;;;;;1.77;1.00;;;20.10;85.10;;;;;;5039834;28;21033;-79
2022/07/08 07:22:42;;;;;;;3.37;1.07;;;20.10;81.70;;;;;;5039251;28;20475;-80
2022/07/08 07:25:10;;;;;;;1.60;1.10;;;20.10;89.40;;;;;;5045244;28;21050;-79
2022/07/08 07:27:41;;;;;;;1.30;1.20;;;20.20;88.00;;;;;;5036368;28;20522;-79
2022/07/08 07:30:11;;;;;;;1.67;1.10;;;20.20;85.70;;;;;;5036935;28;20826;-80
2022/07/08 07:32:41;;;;;;;5.03;1.40;;;20.30;86.60;;;;;;5040418;28;20528;-79
2022/07/08 07:35:09;;;;;;;1.73;1.00;;;20.30;85.20;;;;;;5038497;28;20985;-80
2022/07/08 07:37:38;;;;;;;1.70;1.27;;;20.40;86.00;;;;;;5041447;28;20867;-79
2022/07/08 07:40:08;;;;;;;1.30;1.20;;;20.40;87.20;;;;;;5042747;28;20452;-79
2022/07/08 07:42:37;;;;;;;1.63;1.00;;;20.50;85.90;;;;;;5050603;28;20463;-80
2022/07/08 07:45:07;;;;;;;3.23;1.00;;;20.50;85.80;;;;;;5046404;28;20458;-79
2022/07/08 07:47:35;;;;;;;3.30;1.10;;;20.60;85.20;;;;;;5037611;28;20571;-80
2022/07/08 07:50:04;;;;;;;3.23;1.40;;;20.70;89.00;;;;;;5040235;28;20467;-79
2022/07/08 07:52:32;;;;;;;2.03;0.93;;;20.70;87.60;;;;;;5038304;28;20498;-79
2022/07/08 07:55:01;;;;;;;1.50;1.30;;;20.80;87.70;;;;;;5042171;28;20475;-79
2022/07/08 07:57:36;;;;;;;3.10;1.07;;;20.80;89.30;;;;;;5041338;28;20460;-79
2022/07/08 08:00:06;;;;;;;2.30;1.03;;;20.80;86.80;;;;;;5038407;28;20491;-79
2022/07/08 08:02:34;;;;;;;2.30;1.00;;;20.90;86.60;;;;;;5041565;28;20464;-80
2022/07/08 08:05:02;;;;;;;2.10;0.93;;;20.90;89.10;;;;;;5039843;28;20459;-79
2022/07/08 08:07:31;;;;;;;2.53;1.07;;;20.90;85.30;;;;;;5036679;28;20538;-79
2022/07/08 08:10:00;;;;;;;3.23;1.23;;;21.00;88.30;;;;;;5038565;28;20535;-79
2022/07/08 08:12:28;;;;;;;2.03;1.10;;;21.00;84.50;;;;;;5035369;28;20538;-79
2022/07/08 08:14:58;;;;;;;3.60;1.20;;;21.00;80.90;;;;;;5042369;28;21007;-80
2022/07/08 08:17:26;;;;;;;1.57;1.03;;;21.00;78.20;;;;;;5033334;28;20536;-79
2022/07/08 08:19:54;;;;;;;2.60;0.90;;;20.90;78.00;;;;;;5041075;28;20544;-80
2022/07/08 08:22:23;;;;;;;2.67;0.90;;;20.90;80.20;;;;;;5044675;28;20475;-79
2022/07/08 08:24:51;;;;;;;1.43;1.10;;;20.90;80.40;;;;;;5045024;28;20463;-79
2022/07/08 08:27:19;;;;;;;1.97;1.00;;;21.00;78.60;;;;;;5055975;28;20486;-79
2022/07/08 08:29:47;;;;;;;1.67;0.90;;;20.90;77.20;;;;;;5050533;28;20447;-80
2022/07/08 08:32:17;;;;;;;1.30;0.90;;;21.00;79.30;;;;;;5050359;28;20498;-79
2022/07/08 08:34:46;;;;;;;3.80;1.10;;;21.10;80.90;;;;;;5047930;28;20463;-79
2022/07/08 08:37:15;;;;;;;3.07;1.97;;;21.10;81.10;;;;;;5044687;28;20459;-79
2022/07/08 08:39:43;;;;;;;0.80;0.70;;;21.10;79.20;;;;;;5046706;28;21137;-79
2022/07/08 08:42:12;;;;;;;3.80;0.93;;;21.10;78.80;;;;;;5043694;28;20490;-80
2022/07/08 08:44:40;;;;;;;1.50;0.90;;;21.00;75.40;;;;;;5045638;28;20954;-79
2022/07/08 08:47:09;;;;;;;1.17;1.00;;;21.10;77.80;;;;;;5039556;28;20452;-79
2022/07/08 08:49:40;;;;;;;1.47;0.93;;;21.10;76.60;;;;;;5039875;28;20447;-79
2022/07/08 08:52:11;;;;;;;1.50;1.00;;;21.10;75.00;;;;;;5042343;28;20491;-78
2022/07/08 08:54:39;;;;;;;2.77;1.00;;;21.10;74.20;;;;;;5034863;28;20531;-79
2022/07/08 08:57:08;;;;;;;2.83;0.80;;;21.00;74.70;;;;;;5042125;28;20451;-80
2022/07/08 08:59:37;;;;;;;0.93;0.90;;;21.00;76.80;;;;;;5035353;28;20831;-79
2022/07/08 09:02:05;;;;;;;1.60;0.83;;;21.00;73.30;;;;;;5040614;28;20507;-79
2022/07/08 09:04:36;;;;;;;2.10;0.80;;;21.00;76.20;;;;;;5039408;28;20451;-78
2022/07/08 09:07:06;;;;;;;3.57;0.80;;;21.10;71.60;;;;;;5035965;28;20454;-79
2022/07/08 09:09:38;;;;;;;2.70;0.70;;;21.10;74.10;;;;;;5036920;28;20490;-80
2022/07/08 09:12:18;;;;;;;2.80;0.93;;;21.10;75.00;;;;;;5038669;28;20893;-79
2022/07/08 09:14:51;;;;;;;3.40;2.37;;;21.20;70.20;;;;;;5043546;28;20447;-79
2022/07/08 09:17:21;;;;;;;8.60;1.10;;;21.20;71.90;;;;;;5042627;28;20447;-80
2022/07/08 09:19:50;;;;;;;2.43;0.80;;;21.30;75.50;;;;;;5039396;28;20968;-80
2022/07/08 09:22:22;;;;;;;2.87;0.80;;;21.30;84.80;;;;;;5044297;28;20578;-79
2022/07/08 09:24:51;;;;;;;2.60;0.93;;;21.40;74.80;;;;;;5039853;28;20701;-81
2022/07/08 09:27:19;;;;;;;1.00;0.90;;;21.40;77.50;;;;;;5044988;28;20459;-79
2022/07/08 09:29:58;;;;;;;2.03;0.83;;;21.30;76.40;;;;;;5041457;28;20495;-80
2022/07/08 09:32:26;;;;;;;1.63;0.90;;;21.40;75.60;;;;;;5039972;28;20565;-81
2022/07/08 09:34:55;;;;;;;1.77;0.90;;;21.40;76.70;;;;;;5039125;28;21034;-81
2022/07/08 09:37:24;;;;;;;2.17;0.90;;;21.40;79.80;;;;;;5046264;28;20452;-79
2022/07/08 09:39:52;;;;;;;2.43;0.97;;;21.50;77.10;;;;;;5040184;28;20455;-80
2022/07/08 09:42:21;;;;;;;2.33;0.97;;;21.50;78.80;;;;;;5041291;28;20475;-80
2022/07/08 09:44:53;;;;;;;0.97;0.90;;;21.60;80.30;;;;;;5036310;28;20456;-80
2022/07/08 09:47:22;;;;;;;1.60;1.00;;;21.60;75.80;;;;;;5039096;28;20514;-80
2022/07/08 09:49:50;;;;;;;1.10;1.00;;;21.60;79.00;;;;;;5040027;28;20522;-81
2022/07/08 09:52:25;;;;;;;1.60;1.00;;;21.70;80.20;;;;;;5045787;28;20475;-81
2022/07/08 09:55:01;;;;;;;1.90;1.00;;;21.70;80.00;;;;;;5042182;28;20447;-80
2022/07/08 09:57:30;;;;;;;2.13;1.03;;;21.70;74.40;;;;;;5046362;28;20501;-81
2022/07/08 09:59:58;;;;;;;2.53;1.10;;;21.70;73.60;;;;;;5035641;28;20967;-80
2022/07/08 10:02:28;;;;;;;4.87;1.20;;;21.80;79.30;;;;;;5045821;28;20487;-82
2022/07/08 10:04:57;;;;;;;0.97;0.90;;;21.90;81.70;;;;;;5035383;28;20459;-81
2022/07/08 10:07:27;;;;;;;1.10;0.93;;;21.90;80.50;;;;;;5042664;28;20474;-81
2022/07/08 10:09:56;;;;;;;0.80;0.80;;;22.00;83.70;;;;;;5053060;28;20467;-83
2022/07/08 10:12:26;;;;;;;1.93;1.00;;;22.00;81.40;;;;;;5053844;28;20471;-82
2022/07/08 10:14:56;;;;;;;1.67;1.20;;;22.10;79.40;;;;;;5053531;28;20459;-83
2022/07/08 10:17:29;;;;;;;6.53;1.10;;;22.10;84.40;;;;;;5058065;28;20489;-82
2022/07/08 10:19:58;;;;;;;2.87;1.13;;;22.20;81.00;;;;;;5040203;28;20455;-83
2022/07/08 10:22:30;;;;;;;3.10;1.23;;;22.10;77.10;;;;;;5052079;28;20483;-80
2022/07/08 10:25:02;;;;;;;1.93;0.93;;;22.00;74.80;;;;;;5043877;28;20459;-84
2022/07/08 10:27:30;;;;;;;1.90;0.97;;;22.10;78.30;;;;;;5044406;28;21010;-87
2022/07/08 10:30:13;;;;;;;1.10;0.90;;;22.20;88.40;;;;;;5043972;28;20453;-81
2022/07/08 10:32:47;;;;;;;1.80;1.10;;;22.30;83.30;;;;;;5048719;28;20490;-85
2022/07/08 10:35:20;;;;;;;1.50;0.83;;;22.30;84.00;;;;;;5048589;28;20913;-83
2022/07/08 10:37:58;;;;;;;2.50;0.80;;;22.40;82.90;;;;;;5062812;28;20447;-82
2022/07/08 10:40:50;;;;;;;2.43;1.10;;;22.40;85.40;;;;;;5036650;28;20451;-83
2022/07/08 10:43:27;;;;;;;2.27;1.10;;;22.50;83.30;;;;;;5041173;28;20479;-83
2022/07/08 10:46:12;;;;;;;2.57;1.00;;;22.50;88.10;;;;;;5045493;28;20483;-85
2022/07/08 10:48:51;;;;;;;2.53;0.90;;;22.60;86.50;;;;;;5045640;28;20462;-85
2022/07/08 10:51:56;;;;;;;1.13;1.03;;;22.60;84.60;;;;;;5052828;28;20506;-85
2022/07/08 10:54:35;;;;;;;1.57;1.00;;;22.60;84.80;;;;;;5052326;28;20475;-83
2022/07/08 10:57:07;;;;;;;1.97;0.80;;;22.60;86.60;;;;;;5053935;28;20857;-86
2022/07/08 10:59:37;;;;;;;2.07;0.90;;;22.70;85.30;;;;;;5042240;28;20477;-87
2022/07/08 11:02:07;;;;;;;2.17;0.80;;;22.80;86.50;;;;;;5050099;28;20475;-84
2022/07/08 11:04:47;;;;;;;1.20;0.90;;;22.80;88.50;;;;;;5047892;28;20455;-84
2022/07/08 11:07:27;;;;;;;1.30;1.10;;;22.80;87.60;;;;;;5049524;28;20471;-83
2022/07/08 11:10:01;;;;;;;1.27;0.70;;;22.90;84.30;;;;;;5046861;28;20471;-83
2022/07/08 11:12:31;;;;;;;2.33;1.10;;;22.90;83.50;;;;;;5049153;28;20475;-85
2022/07/08 11:15:01;;;;;;;1.93;0.77;;;23.00;85.90;;;;;;5059403;28;20521;-84
2022/07/08 11:17:32;;;;;;;2.70;1.00;;;23.00;88.80;;;;;;5043246;28;20448;-83
2022/07/08 11:20:03;;;;;;;1.20;0.70;;;23.00;86.40;;;;;;5049767;28;20454;-88
2022/07/08 11:22:35;;;;;;;1.90;0.90;;;23.00;86.40;;;;;;5050881;28;20476;-84
2022/07/08 11:25:06;;;;;;;0.93;0.80;;;23.00;84.30;;;;;;5043019;28;20456;-81
2022/07/08 11:27:35;;;;;;;3.03;0.90;;;23.00;82.30;;;;;;5026848;28;20466;-81
2022/07/08 11:30:07;;;;;;;2.73;1.30;;;23.00;82.80;;;;;;5040359;28;20456;-83
2022/07/08 11:32:36;;;;;;;1.50;0.83;;;23.00;86.00;;;;;;5045125;28;20479;-87
2022/07/08 11:35:05;;;;;;;2.27;0.93;;;23.00;89.20;;;;;;5039331;28;20460;-82
2022/07/08 11:37:40;;;;;;;1.27;0.90;;;23.10;87.80;;;;;;5047626;28;20823;-86
2022/07/08 11:40:11;;;;;;;0.83;0.80;;;23.10;89.60;;;;;;5041896;28;20447;-83
2022/07/08 11:42:41;;;;;;;1.50;0.90;;;23.10;87.20;;;;;;5039083;28;20474;-83
2022/07/08 11:45:11;;;;;;;2.63;0.90;;;23.10;86.10;;;;;;5042948;28;20494;-82
2022/07/08 11:47:39;;;;;;;2.10;1.00;;;23.10;86.20;;;;;;5052167;28;20455;-83
2022/07/08 11:50:10;;;;;;;1.03;0.90;;;23.20;90.30;;;;;;5045361;28;20454;-83
2022/07/08 11:52:38;;;;;;;2.10;1.00;;;23.30;87.90;;;;;;5025351;28;20479;-84
2022/07/08 11:55:08;;;;;;;0.87;0.80;;;23.30;89.20;;;;;;5064017;28;20835;-84
2022/07/08 11:57:43;;;;;;;2.00;0.70;;;23.30;88.10;;;;;;5051355;28;20451;-86
2022/07/08 12:00:12;;;;;;;0.87;0.80;;;23.30;89.60;;;;;;5059140;28;20458;-83
2022/07/08 12:02:41;;;;;;;0.80;0.80;;;23.30;88.10;;;;;;5061905;28;20468;-83
2022/07/08 12:05:10;;;;;;;1.67;0.80;;;23.40;87.90;;;;;;5054798;28;20436;-84
2022/07/08 12:07:39;;;;;;;1.30;1.10;;;23.40;86.30;;;;;;5051295;28;20542;-84
2022/07/08 12:10:09;;;;;;;1.90;0.90;;;23.30;89.40;;;;;;5030881;28;20456;-87
2022/07/08 12:12:37;;;;;;;1.63;1.00;;;23.40;87.90;;;;;;5052123;28;20479;-84
2022/07/08 12:15:15;;;;;;;2.30;0.90;;;23.40;90.10;;;;;;5032032;28;20476;-87
2022/07/08 12:17:56;;;;;;;1.03;0.83;;;23.50;87.50;;;;;;5047115;28;20475;-86
2022/07/08 12:20:32;;;;;;;1.57;0.70;;;23.50;87.30;;;;;;5064767;28;20489;-83
2022/07/08 12:23:01;;;;;;;1.77;0.80;;;23.50;87.60;;;;;;5035291;28;20477;-83
2022/07/08 12:25:47;;;;;;;1.57;1.17;;;23.60;89.20;;;;;;5047737;28;20463;-81
2022/07/08 12:28:22;;;;;;;3.77;1.00;;;23.60;86.30;;;;;;5048691;28;20466;-83
2022/07/08 12:30:52;;;;;;;1.70;0.93;;;23.60;84.00;;;;;;5038069;28;20938;-84
2022/07/08 12:33:26;;;;;;;1.73;0.80;;;23.60;89.20;;;;;;5057914;28;20864;-84
2022/07/08 12:35:55;;;;;;;1.13;0.70;;;23.70;87.40;;;;;;5029975;28;20477;-87
2022/07/08 12:38:30;;;;;;;1.93;0.90;;;23.70;89.70;;;;;;5050829;28;20443;-83
2022/07/08 12:40:59;;;;;;;1.07;0.80;;;23.70;88.10;;;;;;5066265;28;20466;-85
2022/07/08 12:43:32;;;;;;;0.70;0.70;;;23.70;90.50;;;;;;5044603;28;20455;-85
2022/07/08 12:46:04;;;;;;;1.00;0.73;;;23.70;90.00;;;;;;5043883;28;20445;-80
2022/07/08 12:48:33;;;;;;;1.13;0.80;;;23.70;85.90;;;;;;5047607;28;20448;-85
2022/07/08 12:51:01;;;;;;;2.53;0.90;;;23.70;90.20;;;;;;5051876;28;20494;-85
2022/07/08 12:53:30;;;;;;;0.97;0.77;;;23.70;88.60;;;;;;5055460;28;20452;-84
2022/07/08 12:55:59;;;;;;;1.10;1.00;;;23.70;89.00;;;;;;5050453;28;20930;-83
2022/07/08 12:58:28;;;;;;;0.90;0.80;;;23.80;88.10;;;;;;5066552;28;20866;-87
2022/07/08 13:00:57;;;;;;;1.47;0.87;;;23.80;86.00;;;;;;5053735;28;20546;-87